Time;durP1;ratioP1;P1;durP2;ratioP2;P2;SDS_P1;SDS_P2;PMS_P1;PMS_P2;Temp;Humidity;BMP_temperature;BMP_pressure;BME280_temperature;BME280_humidity;BME280_pressure;Samples;Min_cycle;Max_cycle;Signal;HPM_P1;HPM_P2
2021/06/23 00:02:13;;;;;;;;;;;;;;;13.73;73.59;102061.03;5118685;27;19915;-39
2021/06/23 00:04:38;;;;;;;;;;;;;;;13.72;73.45;102056.66;5117794;28;20256;-40
2021/06/23 00:07:03;;;;;;;;;;;;;;;13.71;73.35;102063.94;5118525;27;20258;-40
2021/06/23 00:09:29;;;;;;;;;;;;;;;13.68;73.71;102064.41;5118317;28;19907;-40
2021/06/23 00:11:56;;;;;;;;;;;;;;;13.61;73.89;102067.16;5118770;27;20309;-40
2021/06/23 00:14:22;;;;;;;;;;;;;;;13.57;73.31;102059.69;5118140;28;19907;-40
2021/06/23 00:16:48;;;;;;;;;;;;;;;13.59;73.72;102050.25;5118703;28;19918;-40
2021/06/23 00:19:14;;;;;;;;;;;;;;;13.44;73.78;102057.91;5118642;28;19980;-40
2021/06/23 00:21:39;;;;;;;;;;;;;;;13.43;74.05;102055.41;5118380;28;20315;-40
2021/06/23 00:24:05;;;;;;;;;;;;;;;13.40;73.63;102048.53;5118316;28;20001;-40
2021/06/23 00:26:34;;;;;;;;;;;;;;;13.34;75.08;102052.13;5118500;28;19907;-40
2021/06/23 00:28:59;;;;;;;;;;;;;;;13.32;74.04;102046.94;5118138;28;19908;-40
2021/06/23 00:31:26;;;;;;;;;;;;;;;13.30;75.04;102048.19;5118955;28;19960;-40
2021/06/23 00:33:52;;;;;;;;;;;;;;;13.26;74.28;102045.06;5117945;28;19908;-40
2021/06/23 00:36:17;;;;;;;;;;;;;;;13.29;74.59;102043.81;5118071;28;19911;-40
2021/06/23 00:38:43;;;;;;;;;;;;;;;13.25;74.13;102042.56;5117936;28;20021;-40
2021/06/23 00:41:08;;;;;;;;;;;;;;;13.23;74.33;102048.25;5118406;28;20022;-40
2021/06/23 00:43:33;;;;;;;;;;;;;;;13.25;74.37;102053.44;5117772;28;19911;-40
2021/06/23 00:45:58;;;;;;;;;;;;;;;13.29;74.08;102051.97;5118401;28;19916;-40
2021/06/23 00:48:30;;;;;;;;;;;;;;;13.28;74.15;102037.53;5117366;28;19908;-40
2021/06/23 00:50:59;;;;;;;;;;;;;;;13.27;73.94;102045.88;5117848;28;19907;-40
2021/06/23 00:53:25;;;;;;;;;;;;;;;13.27;74.10;102048.59;5117680;28;19907;-40
2021/06/23 00:55:51;;;;;;;;;;;;;;;13.29;73.94;102049.25;5117906;28;19911;-40
2021/06/23 00:58:17;;;;;;;;;;;;;;;13.31;74.31;102058.00;5117483;28;20347;-39
2021/06/23 01:00:42;;;;;;;;;;;;;;;13.27;74.35;102056.75;5117922;28;19915;-39
2021/06/23 01:03:09;;;;;;;;;;;;;;;13.19;74.85;102054.28;5117774;28;19916;-39
2021/06/23 01:05:35;;;;;;;;;;;;;;;13.17;74.40;102061.81;5118043;28;19997;-39
2021/06/23 01:08:02;;;;;;;;;;;;;;;13.17;74.16;102056.38;5117034;28;19926;-40
2021/06/23 01:10:29;;;;;;;;;;;;;;;13.18;74.14;102061.63;5118129;28;19956;-39
2021/06/23 01:13:13;;;;;;;;;;;;;;;13.19;74.18;102055.13;5116050;28;19972;-39
2021/06/23 01:15:40;;;;;;;;;;;;;;;13.17;74.04;102067.25;5117272;28;19997;-39
2021/06/23 01:18:08;;;;;;;;;;;;;;;13.19;73.94;102062.44;5117209;28;19912;-39
2021/06/23 01:20:33;;;;;;;;;;;;;;;13.23;74.37;102061.00;5115307;28;19908;-40
2021/06/23 01:22:58;;;;;;;;;;;;;;;13.19;74.33;102065.16;5117033;27;19907;-40
2021/06/23 01:25:24;;;;;;;;;;;;;;;13.16;73.98;102060.97;5117443;28;19914;-40
2021/06/23 01:27:49;;;;;;;;;;;;;;;13.14;74.77;102069.34;5116986;28;20300;-39
2021/06/23 01:30:15;;;;;;;;;;;;;;;13.10;74.22;102065.41;5117275;27;19943;-39
2021/06/23 01:32:40;;;;;;;;;;;;;;;13.12;74.39;102074.16;5116681;28;19915;-40
2021/06/23 01:35:07;;;;;;;;;;;;;;;13.09;74.36;102065.63;5117479;28;19933;-40
2021/06/23 01:37:32;;;;;;;;;;;;;;;13.09;74.23;102066.47;5116747;28;19994;-40
2021/06/23 01:39:59;;;;;;;;;;;;;;;13.13;74.23;102078.56;5117471;28;19943;-39
2021/06/23 01:42:26;;;;;;;;;;;;;;;13.11;74.02;102072.50;5116393;28;19916;-39
2021/06/23 01:44:52;;;;;;;;;;;;;;;13.12;74.01;102071.44;5116886;27;19911;-39
2021/06/23 01:47:17;;;;;;;;;;;;;;;13.14;74.00;102076.69;5116891;28;19916;-40
2021/06/23 01:49:42;;;;;;;;;;;;;;;13.14;73.92;102077.50;5117183;28;20259;-40
2021/06/23 01:52:07;;;;;;;;;;;;;;;13.18;73.76;102082.50;5116602;28;19919;-39
2021/06/23 01:54:33;;;;;;;;;;;;;;;13.17;73.73;102092.50;5116601;28;19908;-40
2021/06/23 01:56:58;;;;;;;;;;;;;;;13.17;74.01;102089.78;5116201;28;19998;-39
2021/06/23 01:59:26;;;;;;;;;;;;;;;13.11;74.13;102096.94;5116433;28;19908;-39
2021/06/23 02:02:01;;;;;;;;;;;;;;;13.09;74.30;102090.06;5116465;28;19922;-40
2021/06/23 02:04:45;;;;;;;;;;;;;;;13.10;74.34;102097.16;5116672;28;19922;-40
2021/06/23 02:07:13;;;;;;;;;;;;;;;13.09;74.26;102098.22;5116526;28;19954;-39
2021/06/23 02:09:57;;;;;;;;;;;;;;;13.10;73.96;102100.72;5114970;28;20311;-40
2021/06/23 02:12:24;;;;;;;;;;;;;;;13.13;74.04;102094.03;5116111;28;20275;-40
2021/06/23 02:14:56;;;;;;;;;;;;;;;13.14;74.03;102095.69;5116459;28;20414;-39
2021/06/23 02:17:23;;;;;;;;;;;;;;;13.13;74.33;102094.84;5116102;28;19958;-40
2021/06/23 02:19:50;;;;;;;;;;;;;;;13.14;74.36;102096.50;5116123;28;19915;-39
2021/06/23 02:22:20;;;;;;;;;;;;;;;13.14;74.25;102106.56;5115638;28;19968;-39
2021/06/23 02:24:47;;;;;;;;;;;;;;;13.11;74.40;102102.38;5116528;28;19907;-40
2021/06/23 02:27:13;;;;;;;;;;;;;;;13.06;74.44;102114.94;5115828;28;20237;-40
2021/06/23 02:29:39;;;;;;;;;;;;;;;13.07;74.31;102114.72;5116150;28;19915;-39
2021/06/23 02:32:05;;;;;;;;;;;;;;;13.09;74.29;102104.47;5115510;28;20347;-39
2021/06/23 02:34:30;;;;;;;;;;;;;;;13.10;73.99;102100.72;5115742;28;19915;-40
2021/06/23 02:36:56;;;;;;;;;;;;;;;13.10;74.01;102108.84;5115718;28;19910;-40
2021/06/23 02:39:21;;;;;;;;;;;;;;;13.08;74.98;102110.97;5115582;28;19921;-40
2021/06/23 02:41:46;;;;;;;;;;;;;;;13.04;74.83;102112.44;5115609;28;19916;-40
2021/06/23 02:44:11;;;;;;;;;;;;;;;13.03;74.42;102110.78;5115155;28;19915;-40
2021/06/23 02:46:37;;;;;;;;;;;;;;;13.05;74.89;102114.09;5116043;28;19916;-40
2021/06/23 02:49:02;;;;;;;;;;;;;;;13.02;74.29;102121.84;5115983;28;19942;-40
2021/06/23 02:51:30;;;;;;;;;;;;;;;13.02;74.22;102121.84;5115860;28;19918;-40
2021/06/23 02:53:56;;;;;;;;;;;;;;;13.01;74.39;102118.31;5114825;28;19907;-40
2021/06/23 02:56:22;;;;;;;;;;;;;;;13.03;74.84;102118.94;5115237;28;19908;-39
2021/06/23 02:58:48;;;;;;;;;;;;;;;13.05;74.86;102116.00;5115163;28;20476;-40
2021/06/23 03:01:15;;;;;;;;;;;;;;;13.05;74.38;102119.53;5114493;28;19961;-39
2021/06/23 03:03:41;;;;;;;;;;;;;;;13.05;75.22;102107.84;5114754;28;19994;-40
2021/06/23 03:06:06;;;;;;;;;;;;;;;13.00;74.47;102105.78;5115402;28;19907;-39
2021/06/23 03:08:32;;;;;;;;;;;;;;;12.99;74.79;102101.41;5114681;28;20263;-40
2021/06/23 03:10:58;;;;;;;;;;;;;;;13.00;74.95;102108.50;5114891;28;19998;-40
2021/06/23 03:13:23;;;;;;;;;;;;;;;13.00;74.51;102113.94;5114939;28;20041;-40
2021/06/23 03:15:48;;;;;;;;;;;;;;;13.01;74.70;102109.31;5115398;28;20343;-40
2021/06/23 03:18:13;;;;;;;;;;;;;;;13.02;74.56;102114.53;5114717;28;19908;-40
2021/06/23 03:20:39;;;;;;;;;;;;;;;13.04;74.97;102115.16;5114878;28;19907;-39
2021/06/23 03:23:04;;;;;;;;;;;;;;;13.04;74.73;102117.88;5114884;28;19907;-39
2021/06/23 03:25:29;;;;;;;;;;;;;;;12.99;74.72;102109.56;5114625;28;19907;-39
2021/06/23 03:27:55;;;;;;;;;;;;;;;13.00;74.68;102119.34;5114859;28;20010;-40
2021/06/23 03:30:21;;;;;;;;;;;;;;;13.02;74.69;102121.84;5114841;28;20339;-39
2021/06/23 03:32:48;;;;;;;;;;;;;;;13.02;74.88;102125.38;5114861;28;19990;-39
2021/06/23 03:35:14;;;;;;;;;;;;;;;13.01;74.58;102122.91;5114333;28;19911;-40
2021/06/23 03:37:39;;;;;;;;;;;;;;;13.00;74.92;102122.06;5114312;28;19908;-39
2021/06/23 03:40:04;;;;;;;;;;;;;;;13.03;74.50;102118.94;5113691;28;19929;-39
2021/06/23 03:42:29;;;;;;;;;;;;;;;13.04;75.41;102119.75;5114831;28;19907;-40
2021/06/23 03:44:55;;;;;;;;;;;;;;;13.02;75.09;102122.69;5114118;28;19957;-40
2021/06/23 03:47:20;;;;;;;;;;;;;;;13.02;74.73;102124.56;5115090;28;20056;-39
2021/06/23 03:49:45;;;;;;;;;;;;;;;13.04;74.67;102125.19;5114831;28;19956;-40
2021/06/23 03:52:10;;;;;;;;;;;;;;;13.05;74.78;102124.13;5114512;28;19955;-39
2021/06/23 03:54:36;;;;;;;;;;;;;;;13.06;75.15;102121.19;5114829;28;19919;-40
2021/06/23 03:57:01;;;;;;;;;;;;;;;13.07;74.66;102128.28;5114424;28;20380;-40
2021/06/23 03:59:26;;;;;;;;;;;;;;;13.04;75.29;102131.47;5115046;28;19907;-40
2021/06/23 04:01:51;;;;;;;;;;;;;;;13.02;74.77;102124.56;5114958;28;19907;-39
2021/06/23 04:04:17;;;;;;;;;;;;;;;13.03;74.99;102124.38;5114660;28;19911;-39
2021/06/23 04:06:42;;;;;;;;;;;;;;;13.04;74.64;102128.75;5114947;28;19957;-39
2021/06/23 04:09:07;;;;;;;;;;;;;;;13.04;75.04;102127.91;5115095;28;19955;-40
2021/06/23 04:11:33;;;;;;;;;;;;;;;13.05;74.96;102127.69;5114672;28;20327;-39
2021/06/23 04:13:58;;;;;;;;;;;;;;;13.08;74.70;102124.56;5112803;28;19908;-39
2021/06/23 04:16:23;;;;;;;;;;;;;;;13.11;74.71;102126.81;5114550;28;20339;-40
2021/06/23 04:18:48;;;;;;;;;;;;;;;13.08;74.88;102119.13;5114207;28;20343;-40
2021/06/23 04:21:13;;;;;;;;;;;;;;;13.02;74.95;102114.53;5114583;28;20340;-40
2021/06/23 04:23:39;;;;;;;;;;;;;;;13.00;74.93;102115.81;5114451;28;19994;-40
2021/06/23 04:26:04;;;;;;;;;;;;;;;13.01;75.03;102114.75;5114215;28;19908;-40
2021/06/23 04:28:29;;;;;;;;;;;;;;;13.05;74.78;102124.97;5114398;28;19907;-39
2021/06/23 04:30:54;;;;;;;;;;;;;;;13.06;74.81;102123.91;5115018;28;19914;-40
2021/06/23 04:33:20;;;;;;;;;;;;;;;13.09;74.90;102117.22;5114723;28;19908;-39
2021/06/23 04:35:47;;;;;;;;;;;;;;;13.11;74.70;102128.69;5114094;28;19953;-40
2021/06/23 04:38:12;;;;;;;;;;;;;;;13.11;74.96;102128.69;5114600;28;19976;-40
2021/06/23 04:40:38;;;;;;;;;;;;;;;13.12;74.88;102131.19;5114357;28;20351;-39
2021/06/23 04:43:03;;;;;;;;;;;;;;;13.14;74.77;102125.56;5113984;28;19961;-40
2021/06/23 04:45:28;;;;;;;;;;;;;;;13.17;74.82;102132.44;5116152;28;19912;-40
2021/06/23 04:47:54;;;;;;;;;;;;;;;13.17;75.01;102121.56;5117475;28;20006;-40
2021/06/23 04:50:19;;;;;;;;;;;;;;;13.17;74.83;102118.84;5118076;28;19960;-40
2021/06/23 04:52:45;;;;;;;;;;;;;;;13.18;74.77;102124.09;5117641;28;20237;-40
2021/06/23 04:55:16;;;;;;;;;;;;;;;13.15;74.68;102116.34;5118030;28;19907;-39
2021/06/23 04:57:41;;;;;;;;;;;;;;;13.16;74.75;102115.31;5117942;28;19908;-40
2021/06/23 05:00:07;;;;;;;;;;;;;;;13.19;74.74;102114.88;5118194;28;20351;-40
2021/06/23 05:02:32;;;;;;;;;;;;;;;13.22;74.74;102109.03;5117889;28;20302;-40
2021/06/23 05:04:57;;;;;;;;;;;;;;;13.23;74.77;102118.84;5117812;28;20002;-39
2021/06/23 05:07:22;;;;;;;;;;;;;;;13.21;74.86;102125.50;5117337;28;20335;-40
2021/06/23 05:09:47;;;;;;;;;;;;;;;13.21;74.99;102122.81;5117133;28;19912;-40
2021/06/23 05:12:14;;;;;;;;;;;;;;;13.25;74.90;102126.78;5117367;28;19998;-39
2021/06/23 05:14:39;;;;;;;;;;;;;;;13.28;74.66;102123.63;5118199;28;19915;-40
2021/06/23 05:17:04;;;;;;;;;;;;;;;13.31;75.04;102120.47;5118157;28;19908;-39
2021/06/23 05:19:30;;;;;;;;;;;;;;;13.32;74.87;102130.28;5117539;28;19908;-40
2021/06/23 05:21:58;;;;;;;;;;;;;;;13.33;74.53;102129.25;5117477;28;19931;-40
2021/06/23 05:24:23;;;;;;;;;;;;;;;13.33;74.80;102131.97;5117450;28;19914;-39
2021/06/23 05:26:48;;;;;;;;;;;;;;;13.35;74.58;102125.25;5117865;28;19911;-39
2021/06/23 05:29:13;;;;;;;;;;;;;;;13.38;74.62;102132.16;5116999;28;19908;-39
2021/06/23 05:31:39;;;;;;;;;;;;;;;13.42;74.51;102136.09;5117065;28;20272;-40
2021/06/23 05:34:04;;;;;;;;;;;;;;;13.45;75.06;102132.94;5116876;28;20343;-40
2021/06/23 05:36:29;;;;;;;;;;;;;;;13.43;74.91;102129.59;5117186;28;19908;-40
2021/06/23 05:38:55;;;;;;;;;;;;;;;13.39;75.42;102133.81;5116877;28;20353;-40
2021/06/23 05:41:20;;;;;;;;;;;;;;;13.39;74.92;102136.53;5117691;28;19926;-40
2021/06/23 05:43:46;;;;;;;;;;;;;;;13.43;74.81;102139.66;5116764;28;20336;-39
2021/06/23 05:46:11;;;;;;;;;;;;;;;13.44;74.50;102135.88;5116731;28;19956;-40
2021/06/23 05:48:36;;;;;;;;;;;;;;;13.47;74.51;102141.72;5116297;28;20010;-40
2021/06/23 05:51:02;;;;;;;;;;;;;;;13.50;75.13;102141.25;5116664;28;19915;-40
2021/06/23 05:53:27;;;;;;;;;;;;;;;13.49;74.73;102146.91;5116578;28;20340;-40
2021/06/23 05:55:55;;;;;;;;;;;;;;;13.47;74.99;102144.44;5116615;28;20301;-39
2021/06/23 05:58:20;;;;;;;;;;;;;;;13.44;75.18;102142.13;5115421;28;20370;-40
2021/06/23 06:00:45;;;;;;;;;;;;;;;13.46;74.87;102148.16;5116196;28;19907;-39
2021/06/23 06:03:11;;;;;;;;;;;;;;;13.51;74.61;102150.22;5116308;28;19908;-39
2021/06/23 06:05:36;;;;;;;;;;;;;;;13.56;74.61;102151.25;5116176;28;20271;-40
2021/06/23 06:08:01;;;;;;;;;;;;;;;13.61;74.67;102156.84;5116324;28;20343;-39
2021/06/23 06:10:30;;;;;;;;;;;;;;;13.68;74.54;102158.72;5116572;28;19951;-40
2021/06/23 06:12:55;;;;;;;;;;;;;;;13.70;74.29;102159.31;5116944;28;19961;-40
2021/06/23 06:15:20;;;;;;;;;;;;;;;13.76;74.45;102161.16;5116378;28;20298;-40
2021/06/23 06:17:45;;;;;;;;;;;;;;;13.82;74.23;102163.00;5115815;28;20305;-39
2021/06/23 06:20:11;;;;;;;;;;;;;;;13.87;74.16;102166.72;5116094;28;19915;-40
2021/06/23 06:22:36;;;;;;;;;;;;;;;13.89;74.05;102169.22;5115686;28;19937;-40
2021/06/23 06:25:02;;;;;;;;;;;;;;;13.87;74.08;102168.63;5116485;28;19951;-40
2021/06/23 06:27:27;;;;;;;;;;;;;;;13.92;74.12;102168.78;5116036;28;19911;-40
2021/06/23 06:29:53;;;;;;;;;;;;;;;14.00;73.88;102171.22;5115881;28;19907;-40
2021/06/23 06:32:18;;;;;;;;;;;;;;;14.04;73.92;102164.28;5115536;28;19914;-40
2021/06/23 06:34:43;;;;;;;;;;;;;;;13.99;73.73;102176.88;5116347;28;19981;-40
2021/06/23 06:37:09;;;;;;;;;;;;;;;14.04;73.70;102182.47;5115716;28;19911;-40
2021/06/23 06:39:34;;;;;;;;;;;;;;;14.00;72.88;102184.81;5115415;28;19914;-40
2021/06/23 06:41:59;;;;;;;;;;;;;;;13.99;73.06;102185.88;5115581;28;19908;-40
2021/06/23 06:44:28;;;;;;;;;;;;;;;14.05;73.50;102193.13;5115888;28;20275;-40
2021/06/23 06:46:53;;;;;;;;;;;;;;;14.11;73.59;102194.16;5115232;28;20352;-41
2021/06/23 06:49:19;;;;;;;;;;;;;;;14.16;73.29;102183.44;5115520;28;19960;-40
2021/06/23 06:51:44;;;;;;;;;;;;;;;14.24;73.08;102187.75;5116048;28;19907;-40
2021/06/23 06:54:09;;;;;;;;;;;;;;;14.28;72.97;102180.81;5115372;28;19908;-40
2021/06/23 06:56:34;;;;;;;;;;;;;;;14.31;72.81;102183.09;5115392;28;19915;-40
2021/06/23 06:59:00;;;;;;;;;;;;;;;14.35;72.71;102181.59;5115843;28;19908;-40
2021/06/23 07:01:25;;;;;;;;;;;;;;;14.37;72.20;102179.47;5115628;28;19915;-40
2021/06/23 07:03:50;;;;;;;;;;;;;;;14.39;72.16;102182.81;5115123;28;19914;-39
2021/06/23 07:06:15;;;;;;;;;;;;;;;14.44;72.26;102191.13;5115754;28;19911;-40
2021/06/23 07:08:41;;;;;;;;;;;;;;;14.50;72.67;102189.44;5114601;28;19908;-40
2021/06/23 07:11:06;;;;;;;;;;;;;;;14.56;72.55;102194.81;5115121;28;19953;-40
2021/06/23 07:13:31;;;;;;;;;;;;;;;14.61;70.84;102194.97;5115302;28;19908;-40
2021/06/23 07:15:56;;;;;;;;;;;;;;;14.64;71.59;102189.09;5115392;28;19911;-40
2021/06/23 07:18:22;;;;;;;;;;;;;;;14.67;71.17;102185.91;5114982;28;19907;-40
2021/06/23 07:20:47;;;;;;;;;;;;;;;14.71;71.62;102191.72;5115829;28;19911;-40
2021/06/23 07:23:12;;;;;;;;;;;;;;;14.75;71.37;102189.41;5113864;28;19960;-40
2021/06/23 07:25:37;;;;;;;;;;;;;;;14.79;71.29;102186.00;5115159;28;19979;-40
2021/06/23 07:28:03;;;;;;;;;;;;;;;14.83;71.34;102186.34;5114705;28;20007;-40
2021/06/23 07:30:29;;;;;;;;;;;;;;;14.81;70.13;102194.75;5114819;28;19908;-41
2021/06/23 07:32:57;;;;;;;;;;;;;;;14.80;70.22;102189.56;5114445;28;19914;-41
2021/06/23 07:38:14;;;;;;;;;;;;;;;14.85;70.30;102184.25;5114505;28;19914;-41
2021/06/23 07:40:57;;;;;;;;;;;;;;;14.92;71.01;102185.81;5115208;28;20345;-41
2021/06/23 07:43:22;;;;;;;;;;;;;;;15.01;70.47;102185.53;5114933;28;19907;-41
2021/06/23 07:45:51;;;;;;;;;;;;;;;15.04;70.32;102171.47;5114480;28;20373;-41
2021/06/23 07:48:19;;;;;;;;;;;;;;;15.04;69.82;102179.63;5115088;28;20217;-41
2021/06/23 07:50:51;;;;;;;;;;;;;;;15.09;70.21;102186.06;5115187;28;19933;-41
2021/06/23 07:53:23;;;;;;;;;;;;;;;15.07;68.39;102180.00;5114581;28;19908;-41
2021/06/23 07:56:01;;;;;;;;;;;;;;;15.12;69.20;102187.47;5114825;28;19908;-41
2021/06/23 08:11:38;;;;;;;;;;;;;;;15.35;65.39;102181.31;5114716;28;19908;-41
2021/06/23 08:14:04;;;;;;;;;;;;;;;15.37;67.24;102188.22;5114261;28;19908;-41
2021/06/23 08:16:30;;;;;;;;;;;;;;;15.47;68.28;102193.13;5114800;28;20294;-41
2021/06/23 08:18:55;;;;;;;;;;;;;;;15.54;66.99;102185.66;5114814;28;19907;-41
2021/06/23 08:21:21;;;;;;;;;;;;;;;15.64;66.19;102176.97;5118040;28;20411;-41
2021/06/23 08:23:46;;;;;;;;;;;;;;;15.69;66.85;102175.19;5117933;28;19977;-41
2021/06/23 08:26:11;;;;;;;;;;;;;;;15.70;65.18;102179.59;5118563;28;20002;-41
2021/06/23 08:28:37;;;;;;;;;;;;;;;15.75;66.98;102184.34;5118118;28;20236;-41
2021/06/23 08:31:02;;;;;;;;;;;;;;;15.81;67.36;102183.44;5118211;28;19908;-41
2021/06/23 08:33:27;;;;;;;;;;;;;;;15.87;67.05;102187.13;5118674;28;19912;-41
2021/06/23 08:35:53;;;;;;;;;;;;;;;15.86;66.65;102190.88;5118902;28;20305;-41
2021/06/23 08:38:19;;;;;;;;;;;;;;;15.82;64.53;102190.53;5117711;28;20418;-41
2021/06/23 08:40:45;;;;;;;;;;;;;;;15.88;65.73;102188.78;5118893;28;19938;-41
2021/06/23 08:43:14;;;;;;;;;;;;;;;15.95;64.43;102193.03;5117952;28;19908;-41
2021/06/23 08:45:40;;;;;;;;;;;;;;;16.04;64.00;102185.34;5118380;28;19908;-41
2021/06/23 08:48:05;;;;;;;;;;;;;;;16.15;63.83;102192.75;5117785;28;19915;-41
2021/06/23 08:50:30;;;;;;;;;;;;;;;16.27;66.10;102186.47;5117745;28;19915;-41
2021/06/23 08:52:55;;;;;;;;;;;;;;;16.42;65.58;102190.38;5117822;28;19914;-41
2021/06/23 08:55:21;;;;;;;;;;;;;;;16.49;65.33;102187.50;5117506;28;19907;-41
2021/06/23 08:57:50;;;;;;;;;;;;;;;16.51;64.15;102192.75;5117676;28;19907;-41
2021/06/23 09:00:16;;;;;;;;;;;;;;;16.55;63.96;102189.31;5117749;28;19914;-41
2021/06/23 09:02:43;;;;;;;;;;;;;;;16.61;64.31;102185.63;5117579;28;19914;-39
2021/06/23 09:05:09;;;;;;;;;;;;;;;16.65;63.31;102185.97;5117353;28;20006;-40
2021/06/23 09:07:35;;;;;;;;;;;;;;;16.75;63.84;102188.97;5117381;28;19915;-41
2021/06/23 09:10:00;;;;;;;;;;;;;;;16.85;61.72;102191.09;5117404;28;20359;-41
2021/06/23 09:12:25;;;;;;;;;;;;;;;16.88;61.75;102190.59;5117012;28;19943;-41
2021/06/23 09:14:50;;;;;;;;;;;;;;;16.73;62.21;102194.66;5117486;28;19963;-41
2021/06/23 09:17:16;;;;;;;;;;;;;;;16.76;60.25;102192.53;5117537;28;19912;-41
2021/06/23 09:19:45;;;;;;;;;;;;;;;16.67;59.77;102195.59;5117909;28;20455;-41
2021/06/23 09:22:29;;;;;;;;;;;;;;;16.55;61.40;102204.88;5117186;28;20350;-41
2021/06/23 09:24:55;;;;;;;;;;;;;;;16.50;60.20;102204.75;5117498;28;19952;-41
2021/06/23 09:27:21;;;;;;;;;;;;;;;16.58;61.60;102199.75;5117002;28;20018;-41
2021/06/23 09:29:47;;;;;;;;;;;;;;;16.71;61.36;102198.69;5117011;28;19907;-41
2021/06/23 09:32:12;;;;;;;;;;;;;;;16.84;62.07;102200.38;5116439;28;20331;-41
2021/06/23 09:34:42;;;;;;;;;;;;;;;16.95;61.93;102200.34;5117023;28;20275;-41
2021/06/23 09:37:26;;;;;;;;;;;;;;;17.11;61.08;102198.75;5116906;27;19919;-41
2021/06/23 09:40:10;;;;;;;;;;;;;;;17.18;58.35;102199.44;5116916;28;19967;-41
2021/06/23 09:42:39;;;;;;;;;;;;;;;17.12;60.07;102196.84;5116572;28;20006;-41
2021/06/23 09:45:08;;;;;;;;;;;;;;;17.13;58.78;102195.75;5117041;27;19914;-41
2021/06/23 09:47:36;;;;;;;;;;;;;;;17.20;59.78;102191.00;5116234;28;19912;-41
2021/06/23 09:50:02;;;;;;;;;;;;;;;17.33;60.34;102196.19;5117594;28;19912;-41
2021/06/23 09:52:27;;;;;;;;;;;;;;;17.32;58.66;102182.75;5116612;28;20371;-41
2021/06/23 09:54:54;;;;;;;;;;;;;;;17.29;58.55;102191.47;5116652;28;19923;-41
2021/06/23 09:57:20;;;;;;;;;;;;;;;17.10;57.80;102197.09;5116897;28;19907;-41
2021/06/23 09:59:51;;;;;;;;;;;;;;;17.14;56.96;102200.19;5117125;28;19930;-41
2021/06/23 10:02:19;;;;;;;;;;;;;;;17.19;57.25;102198.38;5116453;28;20389;-41
2021/06/23 10:04:44;;;;;;;;;;;;;;;17.25;58.05;102202.03;5116723;28;19907;-41
2021/06/23 10:07:09;;;;;;;;;;;;;;;17.43;58.03;102204.59;5116473;28;19908;-41
2021/06/23 10:09:35;;;;;;;;;;;;;;;17.63;58.16;102198.69;5116328;28;19947;-41
2021/06/23 10:12:02;;;;;;;;;;;;;;;17.78;58.62;102205.53;5116536;28;20363;-41
2021/06/23 10:14:30;;;;;;;;;;;;;;;17.91;58.11;102202.47;5116557;28;20422;-41
2021/06/23 10:16:56;;;;;;;;;;;;;;;18.00;58.39;102201.00;5117077;28;19908;-41
2021/06/23 10:19:21;;;;;;;;;;;;;;;18.05;57.15;102198.34;5116158;28;19914;-41
2021/06/23 10:21:46;;;;;;;;;;;;;;;18.09;54.97;102206.88;5115882;28;19911;-41
2021/06/23 10:24:14;;;;;;;;;;;;;;;18.07;56.02;102190.72;5116049;28;19915;-41
2021/06/23 10:26:46;;;;;;;;;;;;;;;18.07;55.99;102193.47;5116193;28;20374;-41
2021/06/23 10:29:12;;;;;;;;;;;;;;;17.96;56.33;102189.72;5115926;28;19948;-41
2021/06/23 10:31:38;;;;;;;;;;;;;;;17.97;57.45;102198.75;5115831;28;20002;-41
2021/06/23 10:34:03;;;;;;;;;;;;;;;17.97;57.73;102199.59;5116406;28;19992;-39
2021/06/23 10:36:28;;;;;;;;;;;;;;;17.99;57.10;102191.94;5116036;28;20007;-38
2021/06/23 10:38:55;;;;;;;;;;;;;;;17.97;57.14;102185.91;5115721;28;20250;-38
2021/06/23 10:41:21;;;;;;;;;;;;;;;17.82;53.34;102193.03;5116574;28;19907;-39
2021/06/23 10:44:05;;;;;;;;;;;;;;;17.82;56.25;102191.13;5115240;28;19915;-40
2021/06/23 10:46:37;;;;;;;;;;;;;;;17.95;57.70;102192.69;5116396;28;19912;-39
2021/06/23 10:49:02;;;;;;;;;;;;;;;17.93;54.37;102187.47;5115524;27;19920;-40
2021/06/23 10:51:28;;;;;;;;;;;;;;;17.94;56.42;102199.25;5115823;28;19966;-39
2021/06/23 10:53:54;;;;;;;;;;;;;;;17.95;56.75;102198.16;5115468;28;19915;-40
2021/06/23 10:56:37;;;;;;;;;;;;;;;17.94;55.52;102207.47;5115505;28;19908;-39
2021/06/23 10:59:23;;;;;;;;;;;;;;;17.94;54.15;102205.53;5115359;28;19941;-40
2021/06/23 11:02:23;;;;;;;;;;;;;;;17.88;56.23;102209.28;5115604;28;20339;-39
2021/06/23 11:04:57;;;;;;;;;;;;;;;17.88;57.31;102208.44;5032448;28;20011;-40
2021/06/23 11:07:41;;;;;;;;;;;;;;;17.85;56.37;102208.94;5032494;28;20052;-40
2021/06/23 11:10:12;;;;;;;;;;;;;;;17.75;55.51;102204.94;5032289;28;19909;-40
2021/06/23 11:12:46;;;;;;;;;;;;;;;17.69;55.95;102207.81;5032615;28;19913;-40
2021/06/23 11:15:12;;;;;;;;;;;;;;;17.79;56.39;102208.00;5032450;28;20396;-40
2021/06/23 11:17:37;;;;;;;;;;;;;;;17.87;56.30;102202.16;5032114;28;19913;-39
2021/06/23 11:20:03;;;;;;;;;;;;;;;18.02;56.81;102196.94;5032677;28;20301;-39
2021/06/23 11:22:35;;;;;;;;;;;;;;;18.13;54.49;102203.41;5032123;28;19909;-40
2021/06/23 11:25:19;;;;;;;;;;;;;;;18.22;54.14;102206.56;5032828;28;19913;-41
2021/06/23 11:27:44;;;;;;;;;;;;;;;18.35;55.22;102208.97;5031912;28;19940;-40
2021/06/23 11:30:19;;;;;;;;;;;;;;;18.38;54.85;102207.63;5032078;28;20002;-40
2021/06/23 11:32:44;;;;;;;;;;;;;;;18.29;54.89;102199.00;5032048;28;19913;-40
2021/06/23 11:35:11;;;;;;;;;;;;;;;18.23;55.27;102203.56;5032237;28;20274;-41
2021/06/23 11:37:37;;;;;;;;;;;;;;;18.26;55.76;102205.00;5033278;28;20007;-40
2021/06/23 11:40:07;;;;;;;;;;;;;;;18.26;55.44;102200.34;5114604;28;19955;-40
2021/06/23 11:42:32;;;;;;;;;;;;;;;18.23;55.25;102203.56;5114869;28;20006;-40
2021/06/23 11:44:58;;;;;;;;;;;;;;;18.21;56.14;102199.44;5114660;28;20000;-40
2021/06/23 11:47:23;;;;;;;;;;;;;;;18.23;55.97;102206.31;5114097;28;19911;-40
2021/06/23 11:49:48;;;;;;;;;;;;;;;18.16;55.95;102197.44;5114524;28;19958;-40
2021/06/23 11:52:13;;;;;;;;;;;;;;;18.09;54.78;102195.94;5114585;28;19950;-40
2021/06/23 11:54:38;;;;;;;;;;;;;;;18.10;56.22;102197.59;5114562;28;19943;-40
2021/06/23 11:57:04;;;;;;;;;;;;;;;18.15;55.21;102184.81;5114500;28;19912;-40
2021/06/23 11:59:29;;;;;;;;;;;;;;;18.17;55.82;102190.88;5115256;28;19907;-40
2021/06/23 12:01:55;;;;;;;;;;;;;;;18.23;55.67;102192.63;5114786;28;20335;-40
2021/06/23 12:04:20;;;;;;;;;;;;;;;18.32;56.28;102193.03;5114405;28;19907;-40
2021/06/23 12:06:45;;;;;;;;;;;;;;;18.40;56.38;102189.88;5114408;28;19914;-40
2021/06/23 12:09:10;;;;;;;;;;;;;;;18.41;54.68;102190.72;5114399;28;19908;-40
2021/06/23 12:11:36;;;;;;;;;;;;;;;18.43;56.38;102183.06;5114971;28;19966;-40
2021/06/23 12:14:01;;;;;;;;;;;;;;;18.49;56.50;102179.31;5114926;28;19908;-40
2021/06/23 12:16:26;;;;;;;;;;;;;;;18.58;55.73;102175.06;5114913;28;19907;-40
2021/06/23 12:18:51;;;;;;;;;;;;;;;18.69;56.08;102171.44;5114301;28;19907;-40
2021/06/23 12:21:16;;;;;;;;;;;;;;;18.70;54.47;102172.25;5114954;28;19918;-40
2021/06/23 12:23:42;;;;;;;;;;;;;;;18.83;55.24;102171.03;5113949;28;19930;-40
2021/06/23 12:26:07;;;;;;;;;;;;;;;18.87;52.49;102166.72;5114280;28;20359;-40
2021/06/23 12:28:32;;;;;;;;;;;;;;;18.90;53.80;102167.03;5114126;28;19907;-40
2021/06/23 12:30:57;;;;;;;;;;;;;;;18.89;52.70;102172.78;5113940;28;20366;-40
2021/06/23 12:33:22;;;;;;;;;;;;;;;18.91;52.97;102173.34;5114122;28;19914;-40
2021/06/23 12:35:48;;;;;;;;;;;;;;;18.86;53.44;102168.63;5114102;28;19915;-40
2021/06/23 12:38:14;;;;;;;;;;;;;;;18.81;53.71;102171.31;5114059;28;19914;-40
2021/06/23 12:40:40;;;;;;;;;;;;;;;18.82;53.58;102177.59;5114165;28;19907;-40
2021/06/23 12:43:24;;;;;;;;;;;;;;;18.82;54.13;102180.34;5114053;28;19915;-40
2021/06/23 12:45:51;;;;;;;;;;;;;;;18.75;54.42;102181.38;5114202;28;19912;-40
2021/06/23 12:48:16;;;;;;;;;;;;;;;18.74;54.43;102178.91;5114822;28;20339;-40
2021/06/23 12:50:42;;;;;;;;;;;;;;;18.67;54.25;102179.03;5114325;28;19908;-40